Time,TemperatureF,DewpointF,PressureIn,WindDirection,WindDirectionDegrees,WindSpeedMPH,WindSpeedGustMPH,Humidity,HourlyPrecipIn,Conditions,Clouds,dailyrainin,SoftwareType,DateUTC
2014-03-06 00:01:00,39.0,23.0,-100.00,SW,229,3.0,7.0,53,-99.99,,,-99.99,,2014-03-06 08:01:00,
2014-03-06 00:42:00,39.0,24.0,-100.00,SW,222,7.0,13.0,54,-99.99,,,-99.99,,2014-03-06 08:42:00,
2014-03-06 00:52:00,38.0,24.0,-100.00,SSW,205,5.0,10.0,57,-99.99,,,-99.99,,2014-03-06 08:52:00,
2014-03-06 01:02:00,38.0,24.0,-100.00,SSW,205,5.0,10.0,57,-99.99,,,-99.99,,2014-03-06 09:02:00,
2014-03-06 01:43:00,39.0,24.0,-100.00,SW,219,5.0,11.0,55,-99.99,,,-99.99,,2014-03-06 09:43:00,
2014-03-06 01:54:00,37.0,24.0,-100.00,SSW,208,4.0,7.0,60,-99.99,,,-99.99,,2014-03-06 09:54:00,
2014-03-06 02:03:00,37.0,24.0,-100.00,SSW,208,4.0,7.0,60,-99.99,,,-99.99,,2014-03-06 10:03:00,
2014-03-06 02:42:00,38.0,24.0,-100.00,SSW,209,5.0,12.0,56,-99.99,,,-99.99,,2014-03-06 10:42:00,
2014-03-06 03:12:00,38.0,24.0,-100.00,SW,236,5.0,7.0,56,-99.99,,,-99.99,,2014-03-06 11:12:00,
2014-03-06 03:22:00,36.0,23.0,-100.00,SW,227,4.0,9.0,60,-99.99,,,-99.99,,2014-03-06 11:22:00,
2014-03-06 03:33:00,36.0,23.0,-100.00,SW,227,4.0,9.0,60,-99.99,,,-99.99,,2014-03-06 11:33:00,
2014-03-06 04:12:00,33.0,23.0,-100.00,North,-999,0.0,4.0,67,-99.99,,,-99.99,,2014-03-06 12:12:00,
2014-03-06 04:22:00,37.0,23.0,-100.00,SW,224,5.0,10.0,57,-99.99,,,-99.99,,2014-03-06 12:22:00,
2014-03-06 04:32:00,37.0,23.0,-100.00,SW,224,5.0,10.0,57,-99.99,,,-99.99,,2014-03-06 12:32:00,
2014-03-06 04:52:00,37.0,24.0,-100.00,SW,220,5.0,10.0,58,-99.99,,,-99.99,,2014-03-06 12:52:00,
2014-03-06 05:12:00,36.0,23.0,-100.00,SSW,210,3.0,7.0,60,-99.99,,,-99.99,,2014-03-06 13:12:00,
2014-03-06 05:21:00,38.0,22.0,-100.00,SSW,213,8.0,14.0,52,-99.99,,,-99.99,,2014-03-06 13:21:00,
2014-03-06 05:32:00,38.0,22.0,-100.00,SSW,213,8.0,14.0,52,-99.99,,,-99.99,,2014-03-06 13:32:00,
2014-03-06 06:12:00,35.0,23.0,-100.00,WSW,244,5.0,8.0,60,-99.99,,,-99.99,,2014-03-06 14:12:00,
2014-03-06 06:22:00,33.0,23.0,-100.00,SSW,205,4.0,8.0,65,-99.99,,,-99.99,,2014-03-06 14:22:00,
2014-03-06 06:32:00,33.0,23.0,-100.00,SSW,205,4.0,8.0,65,-99.99,,,-99.99,,2014-03-06 14:32:00,
2014-03-06 07:12:00,36.0,23.0,-100.00,SW,220,7.0,12.0,60,-99.99,,,-99.99,,2014-03-06 15:12:00,
2014-03-06 07:22:00,37.0,24.0,-100.00,SW,230,7.0,12.0,58,-99.99,,,-99.99,,2014-03-06 15:22:00,
2014-03-06 07:33:00,37.0,24.0,-100.00,SW,230,7.0,12.0,58,-99.99,,,-99.99,,2014-03-06 15:33:00,
2014-03-06 07:54:00,37.0,23.0,-100.00,SW,226,8.0,14.0,57,-99.99,,,-99.99,,2014-03-06 15:54:00,
2014-03-06 08:13:00,37.0,22.0,-100.00,SW,230,7.0,12.0,54,-99.99,,,-99.99,,2014-03-06 16:13:00,
2014-03-06 08:23:00,37.0,22.0,-100.00,SW,224,6.0,11.0,55,-99.99,,,-99.99,,2014-03-06 16:23:00,
2014-03-06 08:33:00,37.0,22.0,-100.00,SW,224,6.0,11.0,55,-99.99,,,-99.99,,2014-03-06 16:33:00,
2014-03-06 09:12:00,38.0,23.0,-100.00,SW,236,5.0,9.0,54,-99.99,,,-99.99,,2014-03-06 17:12:00,
2014-03-06 09:22:00,42.0,24.0,-100.00,South,182,6.0,13.0,48,-99.99,,,-99.99,,2014-03-06 17:22:00,
2014-03-06 09:31:00,44.0,26.0,-100.00,SW,220,5.0,9.0,48,-99.99,,,-99.99,,2014-03-06 17:31:00,
2014-03-06 09:33:00,42.0,24.0,-100.00,South,182,6.0,13.0,48,-99.99,,,-99.99,,2014-03-06 17:33:00,
2014-03-06 09:43:00,42.0,24.0,-100.00,South,182,6.0,13.0,48,-99.99,,,-99.99,,2014-03-06 17:43:00,
2014-03-06 10:12:00,44.0,26.0,-100.00,SW,220,5.0,9.0,48,-99.99,,,-99.99,,2014-03-06 18:12:00,
2014-03-06 10:22:00,44.0,26.0,-100.00,SW,220,5.0,9.0,48,-99.99,,,-99.99,,2014-03-06 18:22:00,
2014-03-06 11:11:00,44.0,25.0,-100.00,SSW,202,13.0,22.0,46,-99.99,,,-99.99,,2014-03-06 19:11:00,
2014-03-06 11:22:00,46.0,26.0,-100.00,SSW,205,14.0,27.0,46,-99.99,,,-99.99,,2014-03-06 19:22:00,
2014-03-06 11:32:00,46.0,26.0,-100.00,SSW,205,14.0,27.0,46,-99.99,,,-99.99,,2014-03-06 19:32:00,
2014-03-06 11:42:00,46.0,26.0,-100.00,SSW,205,14.0,27.0,46,-99.99,,,-99.99,,2014-03-06 19:42:00,
2014-03-06 12:11:00,46.0,27.0,-100.00,SSW,192,13.0,22.0,47,-99.99,,,-99.99,,2014-03-06 20:11:00,
2014-03-06 12:21:00,48.0,27.0,-100.00,SSW,193,12.0,20.0,44,-99.99,,,-99.99,,2014-03-06 20:21:00,
2014-03-06 12:32:00,48.0,27.0,-100.00,SSW,193,12.0,20.0,44,-99.99,,,-99.99,,2014-03-06 20:32:00,
2014-03-06 13:11:00,49.0,29.0,-100.00,South,185,11.0,21.0,45,-99.99,,,-99.99,,2014-03-06 21:11:00,
2014-03-06 13:43:00,49.0,29.0,-100.00,South,181,12.0,23.0,45,-99.99,,,-99.99,,2014-03-06 21:43:00,
2014-03-06 13:53:00,49.0,30.0,-100.00,South,186,11.0,18.0,47,-99.99,,,-99.99,,2014-03-06 21:53:00,
2014-03-06 14:03:00,49.0,30.0,-100.00,South,186,11.0,18.0,47,-99.99,,,-99.99,,2014-03-06 22:03:00,
2014-03-06 14:23:00,50.0,29.0,-100.00,South,181,13.0,22.0,44,-99.99,,,-99.99,,2014-03-06 22:23:00,
2014-03-06 14:43:00,50.0,28.0,-100.00,South,182,13.0,24.0,43,-99.99,,,-99.99,,2014-03-06 22:43:00,
2014-03-06 14:53:00,49.0,29.0,-100.00,South,186,14.0,25.0,46,-99.99,,,-99.99,,2014-03-06 22:53:00,
2014-03-06 15:12:00,44.0,33.0,-100.00,SSW,193,14.0,31.0,64,-99.99,,,-99.99,,2014-03-06 23:12:00,
2014-03-06 15:22:00,44.0,33.0,-100.00,SSW,193,14.0,31.0,64,-99.99,,,-99.99,,2014-03-06 23:22:00,
2014-03-06 15:42:00,41.0,35.0,-100.00,WSW,257,9.0,18.0,79,-99.99,,,-99.99,,2014-03-06 23:42:00,
2014-03-06 15:53:00,42.0,36.0,-100.00,WSW,250,5.0,11.0,80,-99.99,,,-99.99,,2014-03-06 23:53:00,
2014-03-06 16:01:00,42.0,36.0,-100.00,WSW,250,5.0,11.0,80,-99.99,,,-99.99,,2014-03-07 00:01:00,
2014-03-06 16:42:00,42.0,35.0,-100.00,SSW,199,6.0,10.0,77,-99.99,,,-99.99,,2014-03-07 00:42:00,
2014-03-06 16:52:00,41.0,33.0,-100.00,SSW,203,5.0,9.0,74,-99.99,,,-99.99,,2014-03-07 00:52:00,
2014-03-06 17:11:00,41.0,34.0,-100.00,WSW,240,5.0,8.0,76,-99.99,,,-99.99,,2014-03-07 01:11:00,
2014-03-06 17:42:00,39.0,33.0,-100.00,South,182,6.0,13.0,80,-99.99,,,-99.99,,2014-03-07 01:42:00,
2014-03-06 17:52:00,39.0,34.0,-100.00,SSW,198,9.0,17.0,83,-99.99,,,-99.99,,2014-03-07 01:52:00,
2014-03-06 18:11:00,38.0,34.0,-100.00,SW,229,4.0,8.0,87,-99.99,,,-99.99,,2014-03-07 02:11:00,
2014-03-06 18:22:00,38.0,34.0,-100.00,SW,229,4.0,8.0,87,-99.99,,,-99.99,,2014-03-07 02:22:00,
2014-03-06 18:42:00,37.0,34.0,-100.00,SSW,195,3.0,7.0,87,-99.99,,,-99.99,,2014-03-07 02:42:00,
2014-03-06 18:52:00,37.0,34.0,-100.00,SSW,195,3.0,7.0,87,-99.99,,,-99.99,,2014-03-07 02:52:00,
2014-03-06 19:01:00,38.0,34.0,-100.00,North,10,5.0,10.0,85,-99.99,,,-99.99,,2014-03-07 03:01:00,
2014-03-06 19:12:00,36.0,33.0,-100.00,WNW,298,3.0,6.0,89,-99.99,,,-99.99,,2014-03-07 03:12:00,
2014-03-06 19:43:00,38.0,34.0,-100.00,North,10,5.0,10.0,85,-99.99,,,-99.99,,2014-03-07 03:43:00,
2014-03-06 19:53:00,38.0,34.0,-100.00,North,10,5.0,10.0,85,-99.99,,,-99.99,,2014-03-07 03:53:00,
2014-03-06 20:43:00,35.0,26.0,-100.00,WSW,254,10.0,22.0,69,-99.99,,,-99.99,,2014-03-07 04:43:00,
2014-03-06 20:53:00,35.0,25.0,-100.00,WSW,258,5.0,18.0,66,-99.99,,,-99.99,,2014-03-07 04:53:00,
2014-03-06 21:02:00,35.0,25.0,-100.00,WSW,258,5.0,18.0,66,-99.99,,,-99.99,,2014-03-07 05:02:00,
2014-03-06 21:22:00,33.0,26.0,-100.00,SSE,157,3.0,6.0,74,-99.99,,,-99.99,,2014-03-07 05:22:00,
2014-03-06 21:33:00,33.0,26.0,-100.00,SSE,157,3.0,6.0,74,-99.99,,,-99.99,,2014-03-07 05:33:00,
2014-03-06 21:43:00,33.0,26.0,-100.00,SSE,157,3.0,6.0,74,-99.99,,,-99.99,,2014-03-07 05:43:00,
2014-03-06 22:12:00,36.0,23.0,-100.00,West,280,9.0,18.0,58,-99.99,,,-99.99,,2014-03-07 06:12:00,
2014-03-06 22:22:00,36.0,23.0,-100.00,WNW,299,9.0,20.0,58,-99.99,,,-99.99,,2014-03-07 06:22:00,
2014-03-06 22:42:00,33.0,24.0,-100.00,NW,320,12.0,21.0,70,-99.99,,,-99.99,,2014-03-07 06:42:00,
2014-03-06 23:11:00,32.0,25.0,-100.00,NW,313,12.0,19.0,74,-99.99,,,-99.99,,2014-03-07 07:11:00,
2014-03-06 23:22:00,32.0,25.0,-100.00,NW,311,9.0,15.0,76,-99.99,,,-99.99,,2014-03-07 07:22:00,
2014-03-06 23:42:00,31.0,25.0,-100.00,NNW,339,8.0,14.0,78,-99.99,,,-99.99,,2014-03-07 07:42:00,